sensor_id;sensor_type;location;lat;lon;timestamp;P1;durP1;ratioP1;P2;durP2;ratioP2
22205;SDS011;11272;50.104;8.754;2024-02-04T00:00:47;1.10;;;1.00;;
22205;SDS011;11272;50.104;8.754;2024-02-04T00:03:13;0.80;;;0.80;;
22205;SDS011;11272;50.104;8.754;2024-02-04T00:05:40;2.67;;;0.83;;
22205;SDS011;11272;50.104;8.754;2024-02-04T01:19:03;0.97;;;0.87;;
22205;SDS011;11272;50.104;8.754;2024-02-04T01:21:28;0.70;;;0.70;;
22205;SDS011;11272;50.104;8.754;2024-02-04T01:23:54;1.50;;;0.80;;
22205;SDS011;11272;50.104;8.754;2024-02-04T01:26:20;0.90;;;0.90;;
22205;SDS011;11272;50.104;8.754;2024-02-04T01:28:45;0.90;;;0.60;;
22205;SDS011;11272;50.104;8.754;2024-02-04T01:31:11;0.60;;;0.60;;
22205;SDS011;11272;50.104;8.754;2024-02-04T01:33:37;0.87;;;0.87;;
22205;SDS011;11272;50.104;8.754;2024-02-04T01:36:03;0.90;;;0.90;;
22205;SDS011;11272;50.104;8.754;2024-02-04T01:38:28;0.73;;;0.73;;
22205;SDS011;11272;50.104;8.754;2024-02-04T01:40:54;0.70;;;0.67;;
22205;SDS011;11272;50.104;8.754;2024-02-04T01:43:20;2.00;;;0.90;;
22205;SDS011;11272;50.104;8.754;2024-02-04T01:45:46;0.90;;;0.80;;
22205;SDS011;11272;50.104;8.754;2024-02-04T01:48:12;0.93;;;0.80;;
22205;SDS011;11272;50.104;8.754;2024-02-04T01:50:41;0.87;;;0.87;;
22205;SDS011;11272;50.104;8.754;2024-02-04T01:53:07;1.97;;;0.90;;
22205;SDS011;11272;50.104;8.754;2024-02-04T01:55:33;1.80;;;0.60;;
22205;SDS011;11272;50.104;8.754;2024-02-04T01:57:59;0.83;;;0.80;;
22205;SDS011;11272;50.104;8.754;2024-02-04T02:00:25;0.80;;;0.80;;
22205;SDS011;11272;50.104;8.754;2024-02-04T02:02:50;1.30;;;0.93;;
22205;SDS011;11272;50.104;8.754;2024-02-04T02:05:18;0.87;;;0.77;;
22205;SDS011;11272;50.104;8.754;2024-02-04T02:07:43;1.40;;;0.90;;
22205;SDS011;11272;50.104;8.754;2024-02-04T02:10:11;0.70;;;0.70;;
22205;SDS011;11272;50.104;8.754;2024-02-04T02:12:41;1.53;;;0.80;;
22205;SDS011;11272;50.104;8.754;2024-02-04T02:15:16;0.73;;;0.70;;
22205;SDS011;11272;50.104;8.754;2024-02-04T02:18:09;1.13;;;0.97;;
22205;SDS011;11272;50.104;8.754;2024-02-04T02:23:22;1.00;;;0.90;;
22205;SDS011;11272;50.104;8.754;2024-02-04T02:26:02;1.30;;;0.97;;
22205;SDS011;11272;50.104;8.754;2024-02-04T02:51:58;1.80;;;1.17;;
22205;SDS011;11272;50.104;8.754;2024-02-04T03:25:29;1.47;;;1.17;;
22205;SDS011;11272;50.104;8.754;2024-02-04T03:34:00;2.43;;;1.60;;
22205;SDS011;11272;50.104;8.754;2024-02-04T03:39:07;2.40;;;1.70;;
22205;SDS011;11272;50.104;8.754;2024-02-04T03:41:36;1.80;;;1.60;;
22205;SDS011;11272;50.104;8.754;2024-02-04T03:44:01;3.57;;;1.50;;
22205;SDS011;11272;50.104;8.754;2024-02-04T03:46:31;2.13;;;1.50;;
22205;SDS011;11272;50.104;8.754;2024-02-04T03:48:57;3.50;;;1.43;;
22205;SDS011;11272;50.104;8.754;2024-02-04T03:51:22;2.93;;;1.60;;
22205;SDS011;11272;50.104;8.754;2024-02-04T03:53:49;2.57;;;1.60;;
22205;SDS011;11272;50.104;8.754;2024-02-04T03:56:17;2.07;;;1.30;;
22205;SDS011;11272;50.104;8.754;2024-02-04T03:58:43;2.30;;;1.33;;
22205;SDS011;11272;50.104;8.754;2024-02-04T04:04:34;2.60;;;1.70;;
22205;SDS011;11272;50.104;8.754;2024-02-04T04:07:03;1.17;;;1.07;;
22205;SDS011;11272;50.104;8.754;2024-02-04T04:09:32;1.90;;;1.33;;
22205;SDS011;11272;50.104;8.754;2024-02-04T04:11:57;2.37;;;1.70;;
22205;SDS011;11272;50.104;8.754;2024-02-04T04:14:23;2.50;;;1.70;;
22205;SDS011;11272;50.104;8.754;2024-02-04T04:16:49;2.60;;;1.90;;
22205;SDS011;11272;50.104;8.754;2024-02-04T04:19:14;4.57;;;1.87;;
22205;SDS011;11272;50.104;8.754;2024-02-04T04:21:40;2.90;;;1.97;;
22205;SDS011;11272;50.104;8.754;2024-02-04T04:24:06;3.23;;;1.90;;
22205;SDS011;11272;50.104;8.754;2024-02-04T04:26:31;3.80;;;1.57;;
22205;SDS011;11272;50.104;8.754;2024-02-04T04:28:58;3.17;;;1.93;;
22205;SDS011;11272;50.104;8.754;2024-02-04T04:31:24;3.40;;;1.87;;
22205;SDS011;11272;50.104;8.754;2024-02-04T04:33:49;4.37;;;2.10;;
22205;SDS011;11272;50.104;8.754;2024-02-04T04:36:15;3.30;;;1.83;;
22205;SDS011;11272;50.104;8.754;2024-02-04T04:38:40;2.13;;;1.63;;
22205;SDS011;11272;50.104;8.754;2024-02-04T04:41:06;2.00;;;1.50;;
22205;SDS011;11272;50.104;8.754;2024-02-04T04:43:32;4.53;;;2.00;;
22205;SDS011;11272;50.104;8.754;2024-02-04T04:45:58;2.10;;;1.47;;
22205;SDS011;11272;50.104;8.754;2024-02-04T05:27:49;1.87;;;1.17;;
22205;SDS011;11272;50.104;8.754;2024-02-04T05:30:15;2.70;;;1.20;;
22205;SDS011;11272;50.104;8.754;2024-02-04T05:32:41;1.87;;;1.10;;
22205;SDS011;11272;50.104;8.754;2024-02-04T05:35:09;1.67;;;1.37;;
22205;SDS011;11272;50.104;8.754;2024-02-04T05:37:35;1.30;;;1.10;;
22205;SDS011;11272;50.104;8.754;2024-02-04T05:40:02;1.50;;;1.10;;
22205;SDS011;11272;50.104;8.754;2024-02-04T05:42:28;1.47;;;1.07;;
22205;SDS011;11272;50.104;8.754;2024-02-04T05:44:54;2.23;;;0.90;;
22205;SDS011;11272;50.104;8.754;2024-02-04T05:47:19;1.63;;;1.00;;
22205;SDS011;11272;50.104;8.754;2024-02-04T05:49:45;1.37;;;0.87;;
22205;SDS011;11272;50.104;8.754;2024-02-04T05:52:11;1.97;;;0.80;;
22205;SDS011;11272;50.104;8.754;2024-02-04T05:54:37;2.30;;;0.70;;
22205;SDS011;11272;50.104;8.754;2024-02-04T05:57:06;0.77;;;0.60;;
22205;SDS011;11272;50.104;8.754;2024-02-04T05:59:33;1.60;;;0.70;;
22205;SDS011;11272;50.104;8.754;2024-02-04T06:01:58;0.60;;;0.60;;
22205;SDS011;11272;50.104;8.754;2024-02-04T06:04:24;1.43;;;0.80;;
22205;SDS011;11272;50.104;8.754;2024-02-04T06:06:50;0.67;;;0.67;;
22205;SDS011;11272;50.104;8.754;2024-02-04T06:09:15;0.70;;;0.60;;
22205;SDS011;11272;50.104;8.754;2024-02-04T06:11:44;0.80;;;0.77;;
22205;SDS011;11272;50.104;8.754;2024-02-04T06:14:11;0.57;;;0.50;;
22205;SDS011;11272;50.104;8.754;2024-02-04T06:16:36;0.43;;;0.40;;
22205;SDS011;11272;50.104;8.754;2024-02-04T06:19:02;0.50;;;0.50;;
22205;SDS011;11272;50.104;8.754;2024-02-04T06:21:27;0.37;;;0.37;;
22205;SDS011;11272;50.104;8.754;2024-02-04T06:23:53;0.53;;;0.53;;
22205;SDS011;11272;50.104;8.754;2024-02-04T06:26:19;1.13;;;0.60;;
22205;SDS011;11272;50.104;8.754;2024-02-04T06:28:44;0.57;;;0.50;;
22205;SDS011;11272;50.104;8.754;2024-02-04T06:31:11;1.40;;;0.60;;
22205;SDS011;11272;50.104;8.754;2024-02-04T06:33:38;1.93;;;0.60;;
22205;SDS011;11272;50.104;8.754;2024-02-04T06:36:08;1.80;;;0.57;;
22205;SDS011;11272;50.104;8.754;2024-02-04T06:38:36;0.90;;;0.60;;
22205;SDS011;11272;50.104;8.754;2024-02-04T06:41:02;1.37;;;0.60;;
22205;SDS011;11272;50.104;8.754;2024-02-04T06:43:28;1.30;;;0.43;;
22205;SDS011;11272;50.104;8.754;2024-02-04T06:45:53;2.43;;;0.50;;
22205;SDS011;11272;50.104;8.754;2024-02-04T06:48:19;0.47;;;0.47;;
22205;SDS011;11272;50.104;8.754;2024-02-04T06:50:45;0.43;;;0.43;;
22205;SDS011;11272;50.104;8.754;2024-02-04T06:53:13;0.50;;;0.50;;
22205;SDS011;11272;50.104;8.754;2024-02-04T06:55:39;0.63;;;0.30;;
22205;SDS011;11272;50.104;8.754;2024-02-04T06:58:05;0.40;;;0.33;;
22205;SDS011;11272;50.104;8.754;2024-02-04T07:00:30;2.83;;;0.50;;
22205;SDS011;11272;50.104;8.754;2024-02-04T07:02:56;0.40;;;0.40;;
22205;SDS011;11272;50.104;8.754;2024-02-04T07:05:21;0.63;;;0.30;;
22205;SDS011;11272;50.104;8.754;2024-02-04T07:07:47;0.43;;;0.40;;
22205;SDS011;11272;50.104;8.754;2024-02-04T07:10:14;0.40;;;0.30;;
22205;SDS011;11272;50.104;8.754;2024-02-04T07:12:40;2.10;;;0.60;;
22205;SDS011;11272;50.104;8.754;2024-02-04T07:15:06;0.37;;;0.30;;
22205;SDS011;11272;50.104;8.754;2024-02-04T07:17:31;0.77;;;0.50;;
22205;SDS011;11272;50.104;8.754;2024-02-04T07:19:57;0.30;;;0.30;;
22205;SDS011;11272;50.104;8.754;2024-02-04T07:22:23;0.30;;;0.30;;
22205;SDS011;11272;50.104;8.754;2024-02-04T07:24:48;0.83;;;0.50;;
22205;SDS011;11272;50.104;8.754;2024-02-04T07:27:14;0.37;;;0.30;;
22205;SDS011;11272;50.104;8.754;2024-02-04T07:29:39;0.33;;;0.33;;
22205;SDS011;11272;50.104;8.754;2024-02-04T07:32:05;0.50;;;0.50;;
22205;SDS011;11272;50.104;8.754;2024-02-04T07:34:31;1.20;;;0.50;;
22205;SDS011;11272;50.104;8.754;2024-02-04T07:36:56;0.57;;;0.30;;
22205;SDS011;11272;50.104;8.754;2024-02-04T07:39:22;0.30;;;0.30;;
22205;SDS011;11272;50.104;8.754;2024-02-04T07:41:47;0.67;;;0.40;;
22205;SDS011;11272;50.104;8.754;2024-02-04T07:44:13;0.40;;;0.40;;
22205;SDS011;11272;50.104;8.754;2024-02-04T07:46:38;0.67;;;0.40;;
22205;SDS011;11272;50.104;8.754;2024-02-04T07:49:04;0.50;;;0.50;;
22205;SDS011;11272;50.104;8.754;2024-02-04T07:51:29;0.40;;;0.40;;
22205;SDS011;11272;50.104;8.754;2024-02-04T07:53:56;0.30;;;0.30;;
22205;SDS011;11272;50.104;8.754;2024-02-04T07:56:21;0.60;;;0.60;;
22205;SDS011;11272;50.104;8.754;2024-02-04T07:58:47;0.90;;;0.50;;
22205;SDS011;11272;50.104;8.754;2024-02-04T08:01:12;0.93;;;0.60;;
22205;SDS011;11272;50.104;8.754;2024-02-04T08:03:38;0.50;;;0.50;;
22205;SDS011;11272;50.104;8.754;2024-02-04T08:06:03;0.67;;;0.40;;
22205;SDS011;11272;50.104;8.754;2024-02-04T08:08:29;0.83;;;0.40;;
22205;SDS011;11272;50.104;8.754;2024-02-04T08:10:54;0.40;;;0.40;;
22205;SDS011;11272;50.104;8.754;2024-02-04T08:13:20;4.40;;;0.60;;
22205;SDS011;11272;50.104;8.754;2024-02-04T08:15:46;0.90;;;0.70;;
22205;SDS011;11272;50.104;8.754;2024-02-04T08:18:11;1.03;;;0.40;;
22205;SDS011;11272;50.104;8.754;2024-02-04T08:20:37;0.50;;;0.50;;
22205;SDS011;11272;50.104;8.754;2024-02-04T08:23:02;0.40;;;0.40;;
22205;SDS011;11272;50.104;8.754;2024-02-04T08:25:28;0.40;;;0.40;;
22205;SDS011;11272;50.104;8.754;2024-02-04T08:27:53;0.50;;;0.50;;
22205;SDS011;11272;50.104;8.754;2024-02-04T08:30:23;0.50;;;0.50;;
22205;SDS011;11272;50.104;8.754;2024-02-04T08:32:48;0.70;;;0.53;;
22205;SDS011;11272;50.104;8.754;2024-02-04T08:35:14;0.93;;;0.83;;
22205;SDS011;11272;50.104;8.754;2024-02-04T08:37:39;3.10;;;0.60;;
22205;SDS011;11272;50.104;8.754;2024-02-04T08:40:05;0.50;;;0.50;;
22205;SDS011;11272;50.104;8.754;2024-02-04T08:42:32;0.47;;;0.47;;
22205;SDS011;11272;50.104;8.754;2024-02-04T08:44:57;0.50;;;0.50;;
22205;SDS011;11272;50.104;8.754;2024-02-04T08:47:22;0.70;;;0.60;;
22205;SDS011;11272;50.104;8.754;2024-02-04T08:49:48;3.37;;;1.37;;
22205;SDS011;11272;50.104;8.754;2024-02-04T08:52:14;2.53;;;0.50;;
22205;SDS011;11272;50.104;8.754;2024-02-04T08:54:39;0.67;;;0.50;;
22205;SDS011;11272;50.104;8.754;2024-02-04T08:57:05;0.63;;;0.53;;
22205;SDS011;11272;50.104;8.754;2024-02-04T08:59:31;0.60;;;0.60;;
22205;SDS011;11272;50.104;8.754;2024-02-04T09:01:56;0.63;;;0.63;;
22205;SDS011;11272;50.104;8.754;2024-02-04T09:04:22;0.60;;;0.50;;
22205;SDS011;11272;50.104;8.754;2024-02-04T09:06:48;0.50;;;0.50;;
22205;SDS011;11272;50.104;8.754;2024-02-04T09:09:13;0.63;;;0.63;;
22205;SDS011;11272;50.104;8.754;2024-02-04T09:11:39;0.40;;;0.40;;
22205;SDS011;11272;50.104;8.754;2024-02-04T09:14:04;0.50;;;0.50;;
22205;SDS011;11272;50.104;8.754;2024-02-04T09:16:30;0.40;;;0.40;;
22205;SDS011;11272;50.104;8.754;2024-02-04T09:18:56;0.37;;;0.37;;
22205;SDS011;11272;50.104;8.754;2024-02-04T09:21:21;0.40;;;0.40;;
22205;SDS011;11272;50.104;8.754;2024-02-04T09:23:47;1.60;;;0.60;;
22205;SDS011;11272;50.104;8.754;2024-02-04T09:26:13;0.77;;;0.60;;
22205;SDS011;11272;50.104;8.754;2024-02-04T09:28:38;0.50;;;0.50;;
22205;SDS011;11272;50.104;8.754;2024-02-04T09:31:04;0.57;;;0.40;;
22205;SDS011;11272;50.104;8.754;2024-02-04T09:33:29;1.23;;;0.60;;
22205;SDS011;11272;50.104;8.754;2024-02-04T09:35:55;0.50;;;0.50;;
22205;SDS011;11272;50.104;8.754;2024-02-04T09:38:20;0.30;;;0.30;;
22205;SDS011;11272;50.104;8.754;2024-02-04T09:40:46;0.57;;;0.50;;
22205;SDS011;11272;50.104;8.754;2024-02-04T09:43:12;0.40;;;0.40;;
22205;SDS011;11272;50.104;8.754;2024-02-04T09:45:38;0.70;;;0.40;;
22205;SDS011;11272;50.104;8.754;2024-02-04T09:48:04;0.40;;;0.40;;
22205;SDS011;11272;50.104;8.754;2024-02-04T09:50:33;1.03;;;0.40;;
22205;SDS011;11272;50.104;8.754;2024-02-04T09:52:59;1.20;;;0.50;;
22205;SDS011;11272;50.104;8.754;2024-02-04T09:55:27;1.27;;;0.40;;
22205;SDS011;11272;50.104;8.754;2024-02-04T09:57:55;0.30;;;0.30;;
22205;SDS011;11272;50.104;8.754;2024-02-04T10:00:20;0.40;;;0.40;;
22205;SDS011;11272;50.104;8.754;2024-02-04T10:02:47;0.40;;;0.40;;
22205;SDS011;11272;50.104;8.754;2024-02-04T10:05:14;0.40;;;0.40;;
22205;SDS011;11272;50.104;8.754;2024-02-04T10:07:40;0.30;;;0.30;;
22205;SDS011;11272;50.104;8.754;2024-02-04T10:10:06;0.40;;;0.40;;
22205;SDS011;11272;50.104;8.754;2024-02-04T10:12:32;0.40;;;0.40;;
22205;SDS011;11272;50.104;8.754;2024-02-04T10:15:01;0.67;;;0.40;;
22205;SDS011;11272;50.104;8.754;2024-02-04T10:17:27;0.40;;;0.40;;
22205;SDS011;11272;50.104;8.754;2024-02-04T10:19:52;1.40;;;0.40;;
22205;SDS011;11272;50.104;8.754;2024-02-04T10:22:20;0.30;;;0.30;;
22205;SDS011;11272;50.104;8.754;2024-02-04T10:24:46;0.40;;;0.40;;
22205;SDS011;11272;50.104;8.754;2024-02-04T10:27:15;1.07;;;0.40;;
22205;SDS011;11272;50.104;8.754;2024-02-04T10:29:40;0.40;;;0.40;;
22205;SDS011;11272;50.104;8.754;2024-02-04T10:32:06;0.73;;;0.40;;
22205;SDS011;11272;50.104;8.754;2024-02-04T10:34:36;0.30;;;0.30;;
22205;SDS011;11272;50.104;8.754;2024-02-04T10:37:05;0.37;;;0.30;;
22205;SDS011;11272;50.104;8.754;2024-02-04T10:39:30;0.40;;;0.40;;
22205;SDS011;11272;50.104;8.754;2024-02-04T10:41:57;0.40;;;0.40;;
22205;SDS011;11272;50.104;8.754;2024-02-04T10:44:27;0.63;;;0.40;;
22205;SDS011;11272;50.104;8.754;2024-02-04T10:46:57;0.40;;;0.40;;
22205;SDS011;11272;50.104;8.754;2024-02-04T10:49:26;0.50;;;0.40;;
22205;SDS011;11272;50.104;8.754;2024-02-04T10:51:52;0.47;;;0.30;;
22205;SDS011;11272;50.104;8.754;2024-02-04T10:54:21;0.33;;;0.33;;
22205;SDS011;11272;50.104;8.754;2024-02-04T10:56:54;1.20;;;0.50;;
22205;SDS011;11272;50.104;8.754;2024-02-04T10:59:22;0.33;;;0.33;;
22205;SDS011;11272;50.104;8.754;2024-02-04T11:01:49;0.60;;;0.60;;
22205;SDS011;11272;50.104;8.754;2024-02-04T11:04:16;0.40;;;0.40;;
22205;SDS011;11272;50.104;8.754;2024-02-04T11:06:42;1.87;;;0.50;;
22205;SDS011;11272;50.104;8.754;2024-02-04T11:09:09;1.47;;;0.40;;
22205;SDS011;11272;50.104;8.754;2024-02-04T11:11:37;4.27;;;0.70;;
22205;SDS011;11272;50.104;8.754;2024-02-04T11:14:06;0.40;;;0.40;;
22205;SDS011;11272;50.104;8.754;2024-02-04T11:19:27;0.43;;;0.43;;
22205;SDS011;11272;50.104;8.754;2024-02-04T11:22:22;0.77;;;0.60;;
22205;SDS011;11272;50.104;8.754;2024-02-04T11:27:46;0.50;;;0.50;;
22205;SDS011;11272;50.104;8.754;2024-02-04T11:30:11;0.37;;;0.37;;
22205;SDS011;11272;50.104;8.754;2024-02-04T11:32:37;1.27;;;0.40;;
22205;SDS011;11272;50.104;8.754;2024-02-04T11:35:02;0.40;;;0.40;;
22205;SDS011;11272;50.104;8.754;2024-02-04T11:37:32;1.90;;;0.50;;
22205;SDS011;11272;50.104;8.754;2024-02-04T11:39:58;0.40;;;0.30;;
22205;SDS011;11272;50.104;8.754;2024-02-04T11:42:24;0.60;;;0.60;;
22205;SDS011;11272;50.104;8.754;2024-02-04T11:44:50;1.57;;;0.50;;
22205;SDS011;11272;50.104;8.754;2024-02-04T11:47:33;0.50;;;0.50;;
22205;SDS011;11272;50.104;8.754;2024-02-04T11:49:59;0.63;;;0.63;;
22205;SDS011;11272;50.104;8.754;2024-02-04T11:52:28;0.67;;;0.67;;
22205;SDS011;11272;50.104;8.754;2024-02-04T11:54:54;0.53;;;0.53;;
22205;SDS011;11272;50.104;8.754;2024-02-04T11:57:19;0.63;;;0.63;;
22205;SDS011;11272;50.104;8.754;2024-02-04T11:59:46;0.53;;;0.50;;
22205;SDS011;11272;50.104;8.754;2024-02-04T12:02:15;0.80;;;0.40;;
22205;SDS011;11272;50.104;8.754;2024-02-04T12:04:46;0.43;;;0.43;;
22205;SDS011;11272;50.104;8.754;2024-02-04T12:07:13;0.70;;;0.70;;
22205;SDS011;11272;50.104;8.754;2024-02-04T12:09:40;0.43;;;0.43;;
22205;SDS011;11272;50.104;8.754;2024-02-04T12:12:06;1.10;;;1.00;;
22205;SDS011;11272;50.104;8.754;2024-02-04T12:14:32;0.80;;;0.80;;
22205;SDS011;11272;50.104;8.754;2024-02-04T12:17:05;0.60;;;0.50;;
22205;SDS011;11272;50.104;8.754;2024-02-04T12:19:33;3.17;;;0.70;;
22205;SDS011;11272;50.104;8.754;2024-02-04T12:21:59;0.60;;;0.60;;
22205;SDS011;11272;50.104;8.754;2024-02-04T12:24:24;0.53;;;0.50;;
22205;SDS011;11272;50.104;8.754;2024-02-04T12:26:50;0.80;;;0.80;;
22205;SDS011;11272;50.104;8.754;2024-02-04T12:29:16;0.60;;;0.60;;
22205;SDS011;11272;50.104;8.754;2024-02-04T12:31:41;0.77;;;0.77;;
22205;SDS011;11272;50.104;8.754;2024-02-04T12:34:07;0.40;;;0.40;;
22205;SDS011;11272;50.104;8.754;2024-02-04T12:36:33;0.73;;;0.50;;
22205;SDS011;11272;50.104;8.754;2024-02-04T12:38:59;0.57;;;0.50;;
22205;SDS011;11272;50.104;8.754;2024-02-04T12:41:26;0.40;;;0.40;;
22205;SDS011;11272;50.104;8.754;2024-02-04T12:43:57;1.00;;;0.60;;
22205;SDS011;11272;50.104;8.754;2024-02-04T12:46:26;0.57;;;0.57;;
22205;SDS011;11272;50.104;8.754;2024-02-04T12:48:54;0.60;;;0.60;;
22205;SDS011;11272;50.104;8.754;2024-02-04T12:51:28;0.80;;;0.50;;
22205;SDS011;11272;50.104;8.754;2024-02-04T12:59:26;1.20;;;0.70;;
22205;SDS011;11272;50.104;8.754;2024-02-04T13:08:01;0.60;;;0.50;;
22205;SDS011;11272;50.104;8.754;2024-02-04T13:16:06;0.70;;;0.70;;
22205;SDS011;11272;50.104;8.754;2024-02-04T14:21:51;3.07;;;0.63;;
22205;SDS011;11272;50.104;8.754;2024-02-04T14:24:17;0.47;;;0.47;;
22205;SDS011;11272;50.104;8.754;2024-02-04T14:26:44;0.60;;;0.50;;
22205;SDS011;11272;50.104;8.754;2024-02-04T14:31:58;0.50;;;0.50;;
22205;SDS011;11272;50.104;8.754;2024-02-04T14:34:27;1.80;;;0.60;;
22205;SDS011;11272;50.104;8.754;2024-02-04T14:36:54;2.87;;;0.70;;
22205;SDS011;11272;50.104;8.754;2024-02-04T14:39:20;0.57;;;0.50;;
22205;SDS011;11272;50.104;8.754;2024-02-04T14:44:34;0.70;;;0.70;;
22205;SDS011;11272;50.104;8.754;2024-02-04T14:49:36;0.73;;;0.50;;
22205;SDS011;11272;50.104;8.754;2024-02-04T14:57:53;0.50;;;0.50;;
22205;SDS011;11272;50.104;8.754;2024-02-04T15:00:20;0.40;;;0.40;;
22205;SDS011;11272;50.104;8.754;2024-02-04T15:29:43;1.10;;;0.63;;
22205;SDS011;11272;50.104;8.754;2024-02-04T15:32:12;0.60;;;0.50;;
22205;SDS011;11272;50.104;8.754;2024-02-04T15:34:38;0.77;;;0.60;;
22205;SDS011;11272;50.104;8.754;2024-02-04T15:37:07;0.60;;;0.60;;
22205;SDS011;11272;50.104;8.754;2024-02-04T15:39:36;1.30;;;0.60;;
22205;SDS011;11272;50.104;8.754;2024-02-04T15:42:03;0.80;;;0.40;;
22205;SDS011;11272;50.104;8.754;2024-02-04T15:44:29;0.50;;;0.50;;
22205;SDS011;11272;50.104;8.754;2024-02-04T15:47:01;0.93;;;0.60;;
22205;SDS011;11272;50.104;8.754;2024-02-04T15:49:30;0.53;;;0.53;;
22205;SDS011;11272;50.104;8.754;2024-02-04T15:51:56;0.60;;;0.60;;
22205;SDS011;11272;50.104;8.754;2024-02-04T15:54:22;1.17;;;0.60;;
22205;SDS011;11272;50.104;8.754;2024-02-04T15:56:58;0.83;;;0.60;;
22205;SDS011;11272;50.104;8.754;2024-02-04T15:59:28;1.47;;;0.90;;
22205;SDS011;11272;50.104;8.754;2024-02-04T16:02:01;2.20;;;0.70;;
22205;SDS011;11272;50.104;8.754;2024-02-04T16:04:29;0.70;;;0.67;;
22205;SDS011;11272;50.104;8.754;2024-02-04T16:06:55;0.40;;;0.40;;
22205;SDS011;11272;50.104;8.754;2024-02-04T16:09:21;0.40;;;0.40;;
22205;SDS011;11272;50.104;8.754;2024-02-04T16:11:52;5.30;;;0.70;;
22205;SDS011;11272;50.104;8.754;2024-02-04T16:14:24;0.60;;;0.60;;
22205;SDS011;11272;50.104;8.754;2024-02-04T16:17:30;0.63;;;0.60;;
22205;SDS011;11272;50.104;8.754;2024-02-04T16:19:57;1.33;;;0.60;;
22205;SDS011;11272;50.104;8.754;2024-02-04T16:22:24;0.50;;;0.50;;
22205;SDS011;11272;50.104;8.754;2024-02-04T16:24:49;0.80;;;0.63;;
22205;SDS011;11272;50.104;8.754;2024-02-04T16:27:16;1.27;;;0.60;;
22205;SDS011;11272;50.104;8.754;2024-02-04T16:29:42;1.17;;;0.50;;
22205;SDS011;11272;50.104;8.754;2024-02-04T16:32:08;0.60;;;0.50;;
22205;SDS011;11272;50.104;8.754;2024-02-04T16:34:36;0.90;;;0.80;;
22205;SDS011;11272;50.104;8.754;2024-02-04T16:37:02;1.13;;;0.70;;
22205;SDS011;11272;50.104;8.754;2024-02-04T16:39:28;0.60;;;0.60;;
22205;SDS011;11272;50.104;8.754;2024-02-04T16:41:54;0.80;;;0.70;;
22205;SDS011;11272;50.104;8.754;2024-02-04T16:44:20;3.07;;;0.70;;
22205;SDS011;11272;50.104;8.754;2024-02-04T16:46:45;1.30;;;1.07;;
22205;SDS011;11272;50.104;8.754;2024-02-04T16:49:11;1.20;;;0.70;;
22205;SDS011;11272;50.104;8.754;2024-02-04T16:51:40;0.83;;;0.60;;
22205;SDS011;11272;50.104;8.754;2024-02-04T16:54:07;1.10;;;0.90;;
22205;SDS011;11272;50.104;8.754;2024-02-04T16:56:33;1.40;;;0.60;;
22205;SDS011;11272;50.104;8.754;2024-02-04T16:59:00;0.60;;;0.60;;
22205;SDS011;11272;50.104;8.754;2024-02-04T17:01:27;1.30;;;0.60;;
22205;SDS011;11272;50.104;8.754;2024-02-04T17:03:55;1.10;;;0.43;;
22205;SDS011;11272;50.104;8.754;2024-02-04T17:06:20;0.97;;;0.70;;
22205;SDS011;11272;50.104;8.754;2024-02-04T17:08:46;0.90;;;0.90;;
22205;SDS011;11272;50.104;8.754;2024-02-04T17:11:12;0.70;;;0.60;;
22205;SDS011;11272;50.104;8.754;2024-02-04T17:13:38;0.60;;;0.60;;
22205;SDS011;11272;50.104;8.754;2024-02-04T17:16:16;1.53;;;0.70;;
22205;SDS011;11272;50.104;8.754;2024-02-04T17:18:53;1.40;;;0.77;;
22205;SDS011;11272;50.104;8.754;2024-02-04T17:21:32;0.90;;;0.60;;
22205;SDS011;11272;50.104;8.754;2024-02-04T17:24:10;0.83;;;0.60;;
22205;SDS011;11272;50.104;8.754;2024-02-04T17:26:40;1.13;;;0.40;;
22205;SDS011;11272;50.104;8.754;2024-02-04T17:29:07;0.80;;;0.50;;
22205;SDS011;11272;50.104;8.754;2024-02-04T17:31:34;0.53;;;0.53;;
22205;SDS011;11272;50.104;8.754;2024-02-04T17:33:59;0.60;;;0.40;;
22205;SDS011;11272;50.104;8.754;2024-02-04T17:36:25;1.00;;;0.73;;
22205;SDS011;11272;50.104;8.754;2024-02-04T17:38:52;2.10;;;0.97;;
22205;SDS011;11272;50.104;8.754;2024-02-04T17:41:17;1.80;;;1.00;;
22205;SDS011;11272;50.104;8.754;2024-02-04T17:43:45;0.83;;;0.60;;
22205;SDS011;11272;50.104;8.754;2024-02-04T17:46:11;1.60;;;0.60;;
22205;SDS011;11272;50.104;8.754;2024-02-04T17:48:36;1.07;;;0.60;;
22205;SDS011;11272;50.104;8.754;2024-02-04T17:51:04;0.60;;;0.60;;
22205;SDS011;11272;50.104;8.754;2024-02-04T17:53:30;0.60;;;0.50;;
22205;SDS011;11272;50.104;8.754;2024-02-04T17:58:36;0.30;;;0.30;;
22205;SDS011;11272;50.104;8.754;2024-02-04T18:01:03;1.03;;;0.80;;
22205;SDS011;11272;50.104;8.754;2024-02-04T18:03:29;0.63;;;0.53;;
22205;SDS011;11272;50.104;8.754;2024-02-04T18:05:55;1.57;;;0.60;;
22205;SDS011;11272;50.104;8.754;2024-02-04T18:08:21;0.70;;;0.70;;
22205;SDS011;11272;50.104;8.754;2024-02-04T18:10:47;0.50;;;0.50;;
22205;SDS011;11272;50.104;8.754;2024-02-04T18:16:05;0.50;;;0.50;;
22205;SDS011;11272;50.104;8.754;2024-02-04T18:18:31;0.93;;;0.40;;
22205;SDS011;11272;50.104;8.754;2024-02-04T18:20:57;0.40;;;0.40;;
22205;SDS011;11272;50.104;8.754;2024-02-04T18:23:22;0.70;;;0.60;;
22205;SDS011;11272;50.104;8.754;2024-02-04T18:25:48;3.73;;;3.40;;
22205;SDS011;11272;50.104;8.754;2024-02-04T18:40:21;0.53;;;0.50;;
22205;SDS011;11272;50.104;8.754;2024-02-04T18:42:48;0.97;;;0.40;;
22205;SDS011;11272;50.104;8.754;2024-02-04T18:51:05;0.83;;;0.50;;
22205;SDS011;11272;50.104;8.754;2024-02-04T18:53:32;0.40;;;0.40;;
22205;SDS011;11272;50.104;8.754;2024-02-04T18:55:59;0.80;;;0.50;;
22205;SDS011;11272;50.104;8.754;2024-02-04T18:58:27;0.80;;;0.60;;
22205;SDS011;11272;50.104;8.754;2024-02-04T19:00:53;0.70;;;0.50;;
22205;SDS011;11272;50.104;8.754;2024-02-04T19:03:20;0.50;;;0.50;;
22205;SDS011;11272;50.104;8.754;2024-02-04T19:05:46;0.97;;;0.53;;
22205;SDS011;11272;50.104;8.754;2024-02-04T19:08:12;0.47;;;0.40;;
22205;SDS011;11272;50.104;8.754;2024-02-04T19:10:38;0.40;;;0.40;;
22205;SDS011;11272;50.104;8.754;2024-02-04T19:13:04;2.40;;;0.87;;
22205;SDS011;11272;50.104;8.754;2024-02-04T19:15:33;1.90;;;1.10;;
22205;SDS011;11272;50.104;8.754;2024-02-04T19:17:59;1.50;;;0.50;;
22205;SDS011;11272;50.104;8.754;2024-02-04T19:20:25;0.70;;;0.40;;
22205;SDS011;11272;50.104;8.754;2024-02-04T19:22:52;0.43;;;0.40;;
22205;SDS011;11272;50.104;8.754;2024-02-04T19:25:19;0.40;;;0.40;;
22205;SDS011;11272;50.104;8.754;2024-02-04T19:30:20;0.93;;;0.80;;
22205;SDS011;11272;50.104;8.754;2024-02-04T19:32:50;1.27;;;0.50;;
22205;SDS011;11272;50.104;8.754;2024-02-04T19:35:17;1.47;;;0.60;;
22205;SDS011;11272;50.104;8.754;2024-02-04T19:37:48;0.73;;;0.60;;
22205;SDS011;11272;50.104;8.754;2024-02-04T19:40:14;1.37;;;0.40;;
22205;SDS011;11272;50.104;8.754;2024-02-04T19:42:40;0.63;;;0.40;;
22205;SDS011;11272;50.104;8.754;2024-02-04T19:45:08;0.50;;;0.50;;
22205;SDS011;11272;50.104;8.754;2024-02-04T19:47:36;0.67;;;0.60;;
22205;SDS011;11272;50.104;8.754;2024-02-04T19:50:06;1.50;;;0.40;;
22205;SDS011;11272;50.104;8.754;2024-02-04T19:52:34;0.30;;;0.30;;
22205;SDS011;11272;50.104;8.754;2024-02-04T19:55:00;0.37;;;0.37;;
22205;SDS011;11272;50.104;8.754;2024-02-04T19:57:27;1.13;;;0.40;;
22205;SDS011;11272;50.104;8.754;2024-02-04T19:59:53;2.77;;;0.60;;
22205;SDS011;11272;50.104;8.754;2024-02-04T20:02:22;0.50;;;0.50;;
22205;SDS011;11272;50.104;8.754;2024-02-04T20:04:51;0.43;;;0.30;;
22205;SDS011;11272;50.104;8.754;2024-02-04T20:07:17;0.37;;;0.37;;
22205;SDS011;11272;50.104;8.754;2024-02-04T20:09:44;0.67;;;0.60;;
22205;SDS011;11272;50.104;8.754;2024-02-04T20:12:16;2.23;;;2.03;;
22205;SDS011;11272;50.104;8.754;2024-02-04T20:14:42;0.50;;;0.50;;
22205;SDS011;11272;50.104;8.754;2024-02-04T20:17:09;0.47;;;0.47;;
22205;SDS011;11272;50.104;8.754;2024-02-04T20:19:35;1.43;;;0.60;;